Time;durP1;ratioP1;P1;durP2;ratioP2;P2;SDS_P1;SDS_P2;PMS_P1;PMS_P2;Temp;Humidity;BMP_temperature;BMP_pressure;BME280_temperature;BME280_humidity;BME280_pressure;Samples;Min_cycle;Max_cycle;Signal;HPM_P1;HPM_P2
2022/10/22 00:01:38;;;;;;;2.20;2.10;;;;;;;14.75;100.00;96494.06;5094775;28;20868;-58
2022/10/22 00:04:06;;;;;;;4.53;2.42;;;;;;;14.68;100.00;96499.25;5095229;28;20531;-57
2022/10/22 00:06:33;;;;;;;5.32;2.60;;;;;;;14.70;100.00;96507.88;5083704;28;20301;-58
2022/10/22 00:09:00;;;;;;;2.45;2.20;;;;;;;14.68;100.00;96512.56;5083747;28;20597;-58
2022/10/22 00:11:27;;;;;;;2.60;2.33;;;;;;;14.65;100.00;96510.25;5083815;28;20341;-58
2022/10/22 00:13:54;;;;;;;4.17;2.63;;;;;;;14.66;100.00;96522.56;5083962;28;20194;-58
2022/10/22 00:16:20;;;;;;;4.13;2.67;;;;;;;14.68;100.00;96536.53;5084452;28;20605;-58
2022/10/22 00:18:47;;;;;;;3.53;2.47;;;;;;;14.66;100.00;96543.84;5083613;28;20233;-58
2022/10/22 00:21:15;;;;;;;4.82;2.10;;;;;;;14.64;100.00;96547.66;5083099;28;20639;-58
2022/10/22 00:23:42;;;;;;;1.95;1.77;;;;;;;14.63;100.00;96549.50;5083055;28;20927;-57
2022/10/22 00:26:09;;;;;;;4.57;2.50;;;;;;;14.63;100.00;96543.38;5083599;28;20210;-58
2022/10/22 00:28:35;;;;;;;2.17;1.95;;;;;;;14.64;100.00;96545.84;5083681;28;20329;-57
2022/10/22 00:31:02;;;;;;;2.43;2.03;;;;;;;14.62;100.00;96542.53;5082956;28;20702;-58
2022/10/22 00:33:33;;;;;;;2.47;2.23;;;;;;;14.60;100.00;96547.19;5083073;28;20210;-57
2022/10/22 00:36:00;;;;;;;2.70;2.50;;;;;;;14.59;100.00;96540.22;5084134;28;20244;-58
2022/10/22 00:38:28;;;;;;;1.93;1.83;;;;;;;14.59;100.00;96556.19;5084231;28;20237;-58
2022/10/22 00:40:55;;;;;;;2.50;2.30;;;;;;;14.65;100.00;96562.63;5084576;28;20298;-58
2022/10/22 00:43:21;;;;;;;2.80;2.60;;;;;;;14.58;100.00;96551.00;5086078;28;20827;-58
2022/10/22 00:45:49;;;;;;;6.15;3.20;;;;;;;14.58;100.00;96551.84;5087058;28;20278;-58
2022/10/22 00:48:19;;;;;;;4.70;2.83;;;;;;;14.53;100.00;96556.84;5093840;28;20298;-58
2022/10/22 00:50:47;;;;;;;3.47;2.55;;;;;;;14.56;100.00;96566.34;5090011;28;20240;-57
2022/10/22 00:53:17;;;;;;;3.78;2.55;;;;;;;14.53;100.00;96564.81;5091135;28;20233;-57
2022/10/22 00:55:46;;;;;;;4.90;2.65;;;;;;;14.50;100.00;96570.50;5096602;28;20186;-58
2022/10/22 00:58:13;;;;;;;5.17;2.30;;;;;;;14.52;100.00;96565.84;5093874;28;20202;-58
2022/10/22 01:00:40;;;;;;;4.10;2.63;;;;;;;14.49;100.00;96570.66;5096721;28;20222;-58
2022/10/22 01:03:07;;;;;;;5.13;2.70;;;;;;;14.48;100.00;96567.19;5102006;28;20258;-58
2022/10/22 01:05:40;;;;;;;3.50;2.47;;;;;;;14.47;100.00;96557.53;5104111;28;20241;-58
2022/10/22 01:08:09;;;;;;;2.77;2.40;;;;;;;14.45;100.00;96549.69;5106319;28;20232;-59
2022/10/22 01:10:52;;;;;;;2.72;2.53;;;;;;;14.45;100.00;96556.88;5084080;28;20297;-59
2022/10/22 01:13:28;;;;;;;3.30;2.50;;;;;;;14.47;100.00;96554.88;5082523;28;20194;-57
2022/10/22 01:16:00;;;;;;;3.08;2.15;;;;;;;14.49;100.00;96558.16;5081888;28;20359;-57
2022/10/22 01:18:34;;;;;;;4.13;2.47;;;;;;;14.48;100.00;96551.22;5082839;28;20306;-58
2022/10/22 01:21:09;;;;;;;4.43;2.38;;;;;;;14.47;100.00;96552.19;5082929;28;20204;-57
2022/10/22 01:24:09;;;;;;;3.47;2.38;;;;;;;14.46;100.00;96537.22;5082337;28;20186;-58
2022/10/22 01:26:44;;;;;;;2.47;2.28;;;;;;;14.45;100.00;96538.25;5047731;28;20293;-57
2022/10/22 01:29:16;;;;;;;4.88;2.10;;;;;;;14.44;100.00;96528.59;5081817;28;20280;-57
2022/10/22 01:31:46;;;;;;;2.92;1.80;;;;;;;14.45;100.00;96530.28;5082473;28;20281;-57
2022/10/22 01:34:15;;;;;;;2.65;2.00;;;;;;;14.46;100.00;96518.59;5081944;28;20310;-57
2022/10/22 01:36:42;;;;;;;2.03;1.90;;;;;;;14.44;100.00;96502.81;5082028;28;20226;-57
2022/10/22 01:39:10;;;;;;;2.85;1.90;;;;;;;14.45;100.00;96511.66;5081431;28;20202;-58
2022/10/22 01:41:36;;;;;;;2.53;1.80;;;;;;;14.44;100.00;96523.28;5082188;28;20266;-57
2022/10/22 01:44:03;;;;;;;2.60;2.10;;;;;;;14.42;100.00;96506.63;5081723;28;20277;-57
2022/10/22 01:46:31;;;;;;;3.97;1.95;;;;;;;14.40;100.00;96519.28;5081468;28;20654;-58
2022/10/22 01:49:13;;;;;;;2.50;1.88;;;;;;;14.39;100.00;96509.63;5081598;28;20294;-57
2022/10/22 01:51:51;;;;;;;3.70;2.10;;;;;;;14.39;100.00;96520.28;5080946;28;20317;-57
2022/10/22 01:54:27;;;;;;;3.72;2.00;;;;;;;14.36;100.00;96523.28;5081350;28;20620;-59
2022/10/22 01:56:58;;;;;;;2.35;2.15;;;;;;;14.37;100.00;96535.59;5081328;28;20277;-59
2022/10/22 01:59:33;;;;;;;4.00;2.28;;;;;;;14.36;100.00;96524.13;5081102;28;20292;-57
2022/10/22 02:02:05;;;;;;;1.73;1.60;;;;;;;14.38;100.00;96523.97;5081480;28;20246;-59
2022/10/22 02:04:35;;;;;;;5.05;2.50;;;;;;;14.38;100.00;96524.78;5081460;28;20225;-57
2022/10/22 02:07:05;;;;;;;2.63;1.70;;;;;;;14.36;100.00;96531.28;5081789;28;20726;-58
2022/10/22 02:09:33;;;;;;;3.33;1.70;;;;;;;14.36;100.00;96536.59;5081288;28;20293;-57
2022/10/22 02:12:01;;;;;;;3.00;1.92;;;;;;;14.33;100.00;96526.25;5081716;28;20710;-58
2022/10/22 02:14:29;;;;;;;3.17;1.77;;;;;;;14.35;100.00;96534.91;5081745;28;20194;-58
2022/10/22 02:16:57;;;;;;;2.65;1.80;;;;;;;14.37;100.00;96535.59;5081768;28;20285;-57
2022/10/22 02:19:27;;;;;;;2.10;1.52;;;;;;;14.37;100.00;96532.94;5081363;28;20289;-58
2022/10/22 02:21:54;;;;;;;6.78;2.00;;;;;;;14.38;100.00;96542.59;5081316;28;20293;-57
2022/10/22 02:24:21;;;;;;;1.80;1.70;;;;;;;14.32;100.00;96529.91;5080925;28;20277;-59
2022/10/22 02:26:53;;;;;;;2.30;1.40;;;;;;;14.33;100.00;96542.22;5081784;28;20225;-59
2022/10/22 02:29:22;;;;;;;3.00;1.57;;;;;;;14.31;100.00;96542.38;5080975;28;20289;-59
2022/10/22 02:31:50;;;;;;;5.50;1.93;;;;;;;14.28;100.00;96549.84;5081488;28;20286;-58
2022/10/22 02:34:19;;;;;;;1.60;1.50;;;;;;;14.31;100.00;96552.22;5081301;28;20808;-57
2022/10/22 02:36:48;;;;;;;1.77;1.67;;;;;;;14.28;100.00;96555.19;5081076;28;20241;-58
2022/10/22 02:39:15;;;;;;;2.50;1.60;;;;;;;14.28;100.00;96552.53;5081129;28;21156;-58
2022/10/22 02:41:42;;;;;;;3.00;1.87;;;;;;;14.28;100.00;96555.19;5081451;28;20583;-58
2022/10/22 02:44:10;;;;;;;1.70;1.60;;;;;;;14.25;100.00;96561.69;5081013;28;20321;-58
2022/10/22 02:46:37;;;;;;;3.30;1.80;;;;;;;14.25;100.00;96561.69;5081358;28;20325;-58
2022/10/22 02:49:04;;;;;;;2.03;1.60;;;;;;;14.25;100.00;96558.19;5080921;28;20229;-58
2022/10/22 02:51:31;;;;;;;1.60;1.50;;;;;;;14.27;100.00;96549.06;5080542;28;20316;-58
2022/10/22 02:53:58;;;;;;;4.23;1.70;;;;;;;14.26;100.00;96563.34;5081286;28;20234;-58
2022/10/22 02:56:26;;;;;;;3.73;1.73;;;;;;;14.28;100.00;96566.66;5093313;28;20191;-58
2022/10/22 02:58:52;;;;;;;2.67;1.47;;;;;;;14.27;100.00;96569.50;5098610;28;20229;-58
2022/10/22 03:01:19;;;;;;;1.50;1.40;;;;;;;14.25;100.00;96566.16;5086136;28;20221;-58
2022/10/22 03:03:45;;;;;;;4.03;1.77;;;;;;;14.24;100.00;96564.53;5091187;28;20329;-58
2022/10/22 03:06:12;;;;;;;1.73;1.50;;;;;;;14.26;100.00;96581.13;5087558;28;20253;-57
2022/10/22 03:08:39;;;;;;;3.83;1.50;;;;;;;14.24;100.00;96581.28;5080469;28;20217;-58
2022/10/22 03:11:07;;;;;;;2.70;1.53;;;;;;;14.25;100.00;96585.63;5079996;28;20209;-58
2022/10/22 03:13:34;;;;;;;4.03;1.65;;;;;;;14.25;100.00;96568.81;5080375;28;20556;-57
2022/10/22 03:16:01;;;;;;;2.27;1.50;;;;;;;14.23;100.00;96565.50;5080357;28;20306;-59
2022/10/22 03:18:28;;;;;;;2.70;1.50;;;;;;;14.26;100.00;96562.50;5080560;28;20607;-58
2022/10/22 03:21:02;;;;;;;1.75;1.38;;;;;;;14.27;100.00;96561.53;5080348;28;20290;-58
2022/10/22 03:23:28;;;;;;;1.50;1.40;;;;;;;14.28;100.00;96568.47;5080643;28;20286;-58
2022/10/22 03:25:55;;;;;;;0.90;0.90;;;;;;;14.24;100.00;96565.31;5080545;28;20611;-59
2022/10/22 03:28:23;;;;;;;1.40;1.10;;;;;;;14.26;100.00;96563.34;5080349;28;20289;-59
2022/10/22 03:30:50;;;;;;;3.00;1.50;;;;;;;14.27;100.00;96569.50;5080493;28;20238;-58
2022/10/22 03:33:16;;;;;;;1.67;1.58;;;;;;;14.25;100.00;96569.66;5080822;28;20300;-58
2022/10/22 03:35:44;;;;;;;2.37;1.63;;;;;;;14.27;100.00;96575.66;5084204;28;20368;-58
2022/10/22 03:38:11;;;;;;;1.63;1.50;;;;;;;14.25;100.00;96564.34;5084171;28;20274;-58
2022/10/22 03:40:38;;;;;;;3.73;1.50;;;;;;;14.24;100.00;96565.31;5084278;28;20327;-58
2022/10/22 03:43:04;;;;;;;2.45;1.58;;;;;;;14.23;100.00;96557.53;5083882;28;20281;-58
2022/10/22 03:45:32;;;;;;;1.60;1.10;;;;;;;14.20;100.00;96563.19;5084158;28;20317;-58
2022/10/22 03:47:59;;;;;;;1.95;1.50;;;;;;;14.23;100.00;96568.16;5083489;28;20293;-59
2022/10/22 03:50:26;;;;;;;4.18;1.60;;;;;;;14.19;100.00;96578.31;5083110;28;20306;-59
2022/10/22 03:52:53;;;;;;;2.63;1.43;;;;;;;14.20;100.00;96579.16;5083965;28;20285;-58
2022/10/22 03:55:20;;;;;;;3.53;1.90;;;;;;;14.20;100.00;96568.50;5065999;28;20202;-59
2022/10/22 03:57:47;;;;;;;1.70;1.60;;;;;;;14.18;100.00;96575.81;5085770;28;20225;-58
2022/10/22 04:00:14;;;;;;;1.25;1.25;;;;;;;14.17;100.00;96563.53;5084601;28;20241;-58
2022/10/22 04:02:42;;;;;;;3.13;1.55;;;;;;;14.13;100.00;96562.19;5085161;28;20278;-58
2022/10/22 04:05:09;;;;;;;6.07;1.70;;;;;;;14.14;100.00;96563.84;5084472;28;20312;-59
2022/10/22 04:07:36;;;;;;;2.40;1.25;;;;;;;14.14;100.00;96561.19;5084596;28;20201;-58
2022/10/22 04:10:02;;;;;;;3.28;1.52;;;;;;;14.11;100.00;96561.50;5084653;28;20296;-58
2022/10/22 04:12:29;;;;;;;3.90;1.70;;;;;;;14.13;100.00;96572.84;5084599;28;20202;-58
2022/10/22 04:14:56;;;;;;;6.30;2.10;;;;;;;14.09;100.00;96574.16;5083994;28;20297;-58
2022/10/22 04:17:22;;;;;;;2.60;1.40;;;;;;;14.07;100.00;96581.44;5083249;28;20284;-57
2022/10/22 04:19:50;;;;;;;4.47;1.87;;;;;;;14.07;100.00;96584.09;5083006;28;20531;-58
2022/10/22 04:22:17;;;;;;;1.50;1.30;;;;;;;14.07;100.00;96590.25;5083202;28;20618;-58
2022/10/22 04:24:47;;;;;;;4.70;1.50;;;;;;;14.07;100.00;96598.25;5083201;28;20302;-59
2022/10/22 04:27:14;;;;;;;2.53;1.40;;;;;;;14.06;100.00;96601.09;5083011;28;20348;-59
2022/10/22 04:29:41;;;;;;;3.90;1.67;;;;;;;14.07;100.00;96603.56;5083291;28;20282;-59
2022/10/22 04:32:09;;;;;;;2.13;1.30;;;;;;;14.08;100.00;96604.41;5083122;28;20787;-59
2022/10/22 04:34:35;;;;;;;2.27;1.50;;;;;;;14.06;100.00;96609.06;5083931;28;20209;-57
2022/10/22 04:37:03;;;;;;;1.10;1.10;;;;;;;14.05;100.00;96607.38;5082237;28;20289;-58
2022/10/22 04:39:30;;;;;;;2.47;1.47;;;;;;;14.09;100.00;96611.38;5082700;28;20208;-59
2022/10/22 04:41:57;;;;;;;1.45;1.38;;;;;;;14.08;100.00;96613.22;5082733;28;20285;-58
2022/10/22 04:44:23;;;;;;;2.28;1.20;;;;;;;14.08;100.00;96607.88;5083074;28;20580;-58
2022/10/22 04:46:50;;;;;;;1.77;1.30;;;;;;;14.05;100.00;96608.22;5082027;28;20236;-58
2022/10/22 04:49:17;;;;;;;2.33;1.23;;;;;;;14.08;100.00;96607.06;5086875;28;20265;-58
2022/10/22 04:51:44;;;;;;;3.50;1.10;;;;;;;14.06;100.00;96607.25;5088264;28;20230;-58
2022/10/22 04:54:11;;;;;;;1.40;1.30;;;;;;;14.09;100.00;96603.41;5084535;28;20229;-59
2022/10/22 04:56:38;;;;;;;1.50;1.20;;;;;;;14.09;100.00;96606.91;5092118;28;20258;-58
2022/10/22 04:59:06;;;;;;;1.50;1.02;;;;;;;14.08;100.00;96604.41;5093640;28;20229;-58
2022/10/22 05:01:35;;;;;;;2.00;1.27;;;;;;;14.11;100.00;96602.25;5086578;28;20204;-59
2022/10/22 05:04:02;;;;;;;1.23;1.10;;;;;;;14.12;100.00;96603.06;5082197;28;20248;-57
2022/10/22 05:06:30;;;;;;;3.55;1.08;;;;;;;14.11;100.00;96606.72;5082323;28;20312;-59
2022/10/22 05:08:59;;;;;;;1.75;0.70;;;;;;;14.13;100.00;96620.69;5082346;28;20282;-59
2022/10/22 05:11:30;;;;;;;0.90;0.90;;;;;;;14.14;100.00;96617.03;5081997;28;20618;-59
2022/10/22 05:13:58;;;;;;;0.80;0.80;;;;;;;14.13;100.00;96634.00;5082597;28;20186;-58
2022/10/22 05:16:25;;;;;;;0.77;0.70;;;;;;;14.12;100.00;96634.97;5081668;28;20233;-59
2022/10/22 05:18:52;;;;;;;0.52;0.52;;;;;;;14.11;100.00;96641.28;5081917;28;20226;-59
2022/10/22 05:21:20;;;;;;;1.77;1.10;;;;;;;14.08;100.00;96633.66;5081408;28;20197;-59
2022/10/22 05:23:48;;;;;;;1.73;1.00;;;;;;;14.12;100.00;96645.63;5081647;28;20289;-58
2022/10/22 05:26:16;;;;;;;1.75;0.90;;;;;;;14.06;100.00;96647.13;5081200;28;20224;-58
2022/10/22 05:28:44;;;;;;;1.00;0.80;;;;;;;14.08;100.00;96647.78;5081790;28;20213;-59
2022/10/22 05:31:12;;;;;;;0.90;0.90;;;;;;;14.06;100.00;96647.13;5081759;28;20222;-58
2022/10/22 05:33:39;;;;;;;1.45;1.35;;;;;;;14.08;100.00;96652.25;5081526;28;20293;-59
2022/10/22 05:36:08;;;;;;;1.77;1.30;;;;;;;14.08;100.00;96649.59;5081868;28;20189;-58
2022/10/22 05:38:35;;;;;;;0.97;0.87;;;;;;;14.08;100.00;96655.75;5081228;28;20286;-59
2022/10/22 05:41:03;;;;;;;1.33;1.13;;;;;;;14.11;100.00;96655.41;5081203;28;20297;-59
2022/10/22 05:43:30;;;;;;;1.00;1.00;;;;;;;14.12;100.00;96657.09;5081457;28;20249;-58
2022/10/22 05:46:02;;;;;;;1.10;0.90;;;;;;;14.15;100.00;96664.75;5081207;28;21509;-58
2022/10/22 05:48:28;;;;;;;1.80;1.00;;;;;;;14.18;100.00;96667.06;5081004;28;20202;-58
2022/10/22 05:50:55;;;;;;;0.70;0.70;;;;;;;14.21;100.00;96665.91;5081475;28;20325;-58
2022/10/22 05:53:22;;;;;;;1.23;1.07;;;;;;;14.21;100.00;96677.38;5081312;28;20206;-58
2022/10/22 05:55:48;;;;;;;1.47;1.37;;;;;;;14.23;100.00;96674.56;5081388;28;20281;-58
2022/10/22 05:58:15;;;;;;;1.00;0.90;;;;;;;14.25;100.00;96677.88;5080598;28;20288;-58
2022/10/22 06:00:45;;;;;;;2.90;1.00;;;;;;;14.27;100.00;96678.56;5081233;28;20286;-58
2022/10/22 06:03:13;;;;;;;1.10;1.00;;;;;;;14.28;100.00;96683.69;5081191;28;20221;-57
2022/10/22 06:05:39;;;;;;;0.98;0.90;;;;;;;14.31;100.00;96679.91;5081355;28;20229;-58
2022/10/22 06:08:06;;;;;;;0.97;0.77;;;;;;;14.31;100.00;96679.91;5081004;28;20204;-58
2022/10/22 06:10:33;;;;;;;1.33;0.80;;;;;;;14.33;100.00;96669.91;5080758;28;20202;-58
2022/10/22 06:13:00;;;;;;;0.97;0.80;;;;;;;14.36;100.00;96664.28;5080873;28;20226;-59
2022/10/22 06:15:27;;;;;;;0.82;0.82;;;;;;;14.31;100.00;96667.41;5081917;28;20210;-58
2022/10/22 06:17:53;;;;;;;1.00;0.90;;;;;;;14.30;100.00;96657.78;5081379;28;20285;-57
2022/10/22 06:20:21;;;;;;;1.67;0.87;;;;;;;14.34;100.00;96642.34;5081180;28;20636;-58
2022/10/22 06:22:48;;;;;;;2.10;0.70;;;;;;;14.35;100.00;96642.16;5081469;28;20298;-58
2022/10/22 06:25:15;;;;;;;0.68;0.68;;;;;;;14.36;100.00;96648.31;5080988;28;20202;-59
2022/10/22 06:27:41;;;;;;;1.20;0.60;;;;;;;14.38;100.00;96641.81;5081539;28;20221;-58
2022/10/22 06:30:09;;;;;;;1.85;0.30;;;;;;;14.34;100.00;96645.84;5080639;28;20722;-58
2022/10/22 06:32:36;;;;;;;1.63;0.55;;;;;;;14.35;100.00;96670.59;5081070;28;20213;-57
2022/10/22 06:35:03;;;;;;;1.47;0.50;;;;;;;14.35;100.00;96679.41;5080880;28;20204;-58
2022/10/22 06:37:31;;;;;;;1.85;0.70;;;;;;;14.38;100.00;96681.72;5080775;28;20265;-58
2022/10/22 06:39:57;;;;;;;1.58;0.60;;;;;;;14.35;100.00;96678.56;5080686;28;20650;-59
2022/10/22 06:42:24;;;;;;;0.63;0.50;;;;;;;14.33;100.00;96684.03;5080993;28;20297;-58
2022/10/22 06:44:50;;;;;;;0.80;0.63;;;;;;;14.34;100.00;96685.75;5081428;28;20242;-58
2022/10/22 06:47:17;;;;;;;2.30;0.50;;;;;;;14.32;100.00;96690.34;5081273;28;20218;-59
2022/10/22 06:49:44;;;;;;;3.10;2.83;;;;;;;14.33;100.00;96701.84;5080827;28;20341;-58
2022/10/22 06:52:10;;;;;;;4.30;4.00;;;;;;;14.35;100.00;96710.50;5081021;28;20212;-59
2022/10/22 06:54:38;;;;;;;3.30;2.03;;;;;;;14.37;100.00;96721.81;5081146;28;20205;-58
2022/10/22 06:57:05;;;;;;;0.73;0.73;;;;;;;14.35;100.00;96731.78;5081364;28;20190;-58
2022/10/22 06:59:32;;;;;;;0.60;0.60;;;;;;;14.36;100.00;96744.94;5081416;28;20540;-58
2022/10/22 07:01:58;;;;;;;0.83;0.50;;;;;;;14.32;100.00;96751.53;5081043;28;20202;-58
2022/10/22 07:04:25;;;;;;;0.93;0.60;;;;;;;14.32;100.00;96748.88;5081385;28;20289;-58
2022/10/22 07:06:54;;;;;;;3.40;0.40;;;;;;;14.29;100.00;96751.03;5080170;28;20214;-59
2022/10/22 07:09:21;;;;;;;0.60;0.60;;;;;;;14.32;100.00;96742.72;5082175;28;20234;-59
2022/10/22 07:11:49;;;;;;;0.40;0.40;;;;;;;14.32;100.00;96743.56;5084917;28;20226;-59
2022/10/22 07:14:15;;;;;;;0.50;0.50;;;;;;;14.34;100.00;96754.09;5084545;28;20281;-59
2022/10/22 07:16:44;;;;;;;2.90;0.80;;;;;;;14.35;100.00;96759.22;5084297;28;20372;-59
2022/10/22 07:19:11;;;;;;;0.77;0.70;;;;;;;14.34;100.00;96743.44;5084484;28;20256;-59
2022/10/22 07:21:38;;;;;;;1.97;0.67;;;;;;;14.39;100.00;96754.41;5084788;28;20201;-59
2022/10/22 07:24:05;;;;;;;0.40;0.40;;;;;;;14.40;100.00;96750.75;5084658;28;20202;-59
2022/10/22 07:26:32;;;;;;;1.30;1.20;;;;;;;14.45;100.00;96751.09;5083990;28;20219;-59
2022/10/22 07:29:00;;;;;;;2.07;1.20;;;;;;;14.48;100.00;96760.59;5084831;28;20226;-59
2022/10/22 07:31:27;;;;;;;2.35;0.68;;;;;;;14.50;100.00;96751.44;5084459;28;20214;-58
2022/10/22 07:33:54;;;;;;;0.80;0.60;;;;;;;14.53;100.00;96760.91;5084295;28;20199;-58
2022/10/22 07:36:20;;;;;;;1.23;0.60;;;;;;;14.56;100.00;96760.59;5084474;28;20252;-58
2022/10/22 07:38:49;;;;;;;0.75;0.65;;;;;;;14.60;100.00;96770.72;5084417;28;20293;-59
2022/10/22 07:41:16;;;;;;;1.20;0.50;;;;;;;14.68;100.00;96768.09;5084202;28;20263;-58
2022/10/22 07:43:44;;;;;;;2.63;0.52;;;;;;;14.78;100.00;96773.25;5083834;28;20205;-58
2022/10/22 07:46:13;;;;;;;0.97;0.70;;;;;;;14.91;100.00;96787.72;5083988;28;20243;-60
2022/10/22 07:48:40;;;;;;;0.70;0.45;;;;;;;15.00;100.00;96788.56;5085078;28;20560;-58
2022/10/22 07:51:07;;;;;;;0.40;0.40;;;;;;;15.08;100.00;96787.75;5083525;28;20285;-58
2022/10/22 07:53:34;;;;;;;0.53;0.23;;;;;;;15.16;100.00;96782.41;5084304;28;20281;-58
2022/10/22 07:56:00;;;;;;;0.50;0.50;;;;;;;15.17;100.00;96787.56;5083899;28;20329;-58
2022/10/22 07:58:27;;;;;;;1.47;1.20;;;;;;;15.22;100.00;96789.72;5084045;28;20558;-59
2022/10/22 08:00:56;;;;;;;2.87;2.17;;;;;;;15.23;100.00;96786.06;5084742;28;20230;-59
2022/10/22 08:03:24;;;;;;;1.77;1.67;;;;;;;15.30;100.00;96781.72;5085108;28;20255;-59
2022/10/22 08:05:51;;;;;;;1.10;1.10;;;;;;;15.32;100.00;96780.56;5084694;28;20240;-59
2022/10/22 08:08:18;;;;;;;0.60;0.60;;;;;;;15.40;100.00;96782.38;5084211;28;20612;-59
2022/10/22 08:10:46;;;;;;;0.38;0.38;;;;;;;15.45;100.00;96782.69;5085144;28;20239;-58
2022/10/22 08:13:13;;;;;;;0.30;0.30;;;;;;;15.52;100.00;96781.03;5087296;28;20294;-58
2022/10/22 08:15:40;;;;;;;0.40;0.40;;;;;;;15.52;100.00;96778.38;5087244;28;20341;-59
2022/10/22 08:18:06;;;;;;;0.70;0.30;;;;;;;15.55;100.00;96780.72;5090953;28;20209;-58
2022/10/22 08:20:34;;;;;;;0.40;0.22;;;;;;;15.60;100.00;96781.00;5091652;28;20254;-59
2022/10/22 08:23:01;;;;;;;1.10;0.52;;;;;;;15.57;100.00;96784.03;5092920;28;20226;-59
2022/10/22 08:25:28;;;;;;;0.38;0.38;;;;;;;15.61;100.00;96790.69;5093026;28;20251;-59
2022/10/22 08:27:57;;;;;;;0.77;0.50;;;;;;;15.65;100.00;96786.69;5090240;28;20222;-59
2022/10/22 08:30:26;;;;;;;1.33;0.30;;;;;;;15.63;100.00;96782.50;5090739;28;20216;-58
2022/10/22 08:32:53;;;;;;;0.32;0.25;;;;;;;15.67;100.00;96789.16;5092107;28;20269;-58
2022/10/22 08:35:19;;;;;;;1.05;0.40;;;;;;;15.65;100.00;96788.50;5094820;28;20206;-59
2022/10/22 08:37:47;;;;;;;0.50;0.32;;;;;;;15.63;100.00;96788.66;5089041;28;20293;-59
2022/10/22 08:40:21;;;;;;;0.50;0.40;;;;;;;15.55;100.00;96791.38;5085872;28;20255;-59
2022/10/22 08:43:18;;;;;;;0.35;0.30;;;;;;;15.57;100.00;96789.38;5086002;28;20724;-59
2022/10/22 08:45:49;;;;;;;0.52;0.52;;;;;;;15.55;100.00;96786.03;5090322;28;20211;-59
2022/10/22 08:48:30;;;;;;;0.73;0.40;;;;;;;15.61;100.00;96790.69;5089679;28;20306;-59
2022/10/22 08:50:58;;;;;;;2.00;1.90;;;;;;;15.67;100.00;96792.66;5089412;28;20290;-59
2022/10/22 08:53:32;;;;;;;2.28;1.85;;;;;;;15.78;100.00;96797.63;5093347;28;20203;-59
2022/10/22 08:55:58;;;;;;;1.45;1.35;;;;;;;15.94;100.00;96791.44;5082458;28;20221;-59
2022/10/22 08:58:30;;;;;;;0.77;0.77;;;;;;;16.07;100.00;96797.03;5081987;28;20266;-59
2022/10/22 09:01:00;;;;;;;1.33;0.57;;;;;;;16.27;100.00;96794.75;5082319;28;20282;-58
2022/10/22 09:03:36;;;;;;;0.65;0.40;;;;;;;16.50;100.00;96797.47;5082226;28;20316;-59
2022/10/22 09:06:09;;;;;;;1.48;1.38;;;;;;;16.64;100.00;96800.25;5082385;28;20636;-59
2022/10/22 09:08:39;;;;;;;1.40;0.60;;;;;;;16.82;100.00;96799.97;5083684;28;20283;-58
2022/10/22 09:11:16;;;;;;;1.13;0.55;;;;;;;16.98;100.00;96813.19;5083025;28;20277;-59
2022/10/22 09:13:45;;;;;;;0.63;0.52;;;;;;;17.18;100.00;96813.56;5083093;28;20552;-59
2022/10/22 09:16:16;;;;;;;3.25;0.68;;;;;;;17.33;100.00;96806.38;5082933;28;20308;-58
2022/10/22 09:18:48;;;;;;;0.60;0.60;;;;;;;17.57;100.00;96818.75;5082622;28;20260;-59
2022/10/22 09:21:22;;;;;;;0.60;0.30;;;;;;;17.78;100.00;96817.00;5083803;28;20202;-59
2022/10/22 09:24:01;;;;;;;0.45;0.40;;;;;;;18.10;100.00;96821.19;5085639;28;20237;-59
2022/10/22 09:26:27;;;;;;;0.43;0.43;;;;;;;18.33;100.00;96821.06;5081466;28;20362;-59
2022/10/22 09:28:54;;;;;;;0.47;0.47;;;;;;;18.56;100.00;96829.00;5081752;28;20193;-58
2022/10/22 09:31:20;;;;;;;1.65;0.40;;;;;;;18.74;100.00;96819.50;5081216;28;20241;-58
2022/10/22 09:33:48;;;;;;;0.80;0.60;;;;;;;19.07;100.00;96824.38;5080892;28;21420;-58
2022/10/22 09:36:17;;;;;;;0.50;0.50;;;;;;;19.31;98.66;96827.50;5081585;28;20207;-58
2022/10/22 09:38:47;;;;;;;2.10;0.60;;;;;;;19.58;93.59;96812.50;5081558;28;20206;-58
2022/10/22 09:41:16;;;;;;;1.27;0.43;;;;;;;19.79;91.47;96814.31;5081760;28;20784;-60
2022/10/22 09:43:43;;;;;;;1.20;0.35;;;;;;;20.00;88.47;96813.41;5081646;28;20217;-58
2022/10/22 09:46:16;;;;;;;0.75;0.52;;;;;;;20.20;87.84;96817.00;5081741;28;20325;-59
2022/10/22 09:48:44;;;;;;;0.38;0.38;;;;;;;20.18;84.45;96808.34;5081957;28;20218;-60
2022/10/22 09:51:15;;;;;;;1.35;1.25;;;;;;;20.27;84.37;96817.88;5080725;28;20324;-60
2022/10/22 09:53:43;;;;;;;1.88;0.90;;;;;;;20.33;81.51;96812.56;5081504;28;20232;-59
2022/10/22 09:56:21;;;;;;;0.50;0.50;;;;;;;20.33;83.29;96822.50;5084758;28;20222;-59
2022/10/22 09:58:50;;;;;;;2.10;0.40;;;;;;;20.25;79.96;96817.25;5089543;28;20194;-59
2022/10/22 10:01:19;;;;;;;0.80;0.80;;;;;;;20.33;81.82;96822.50;5092407;28;20204;-59
2022/10/22 10:03:48;;;;;;;1.67;0.52;;;;;;;20.54;81.27;96818.88;5093427;28;20220;-60
2022/10/22 10:06:18;;;;;;;1.52;0.50;;;;;;;20.57;79.44;96824.66;5098219;28;20213;-60
2022/10/22 10:08:44;;;;;;;0.60;0.30;;;;;;;20.42;81.28;96832.03;5092955;28;20669;-59
2022/10/22 10:11:14;;;;;;;0.65;0.50;;;;;;;20.70;83.09;96831.94;5089898;28;20554;-60
2022/10/22 10:13:47;;;;;;;0.95;0.20;;;;;;;20.76;80.25;96831.97;5087018;28;20870;-59
2022/10/22 10:16:27;;;;;;;1.08;0.30;;;;;;;20.77;78.20;96830.09;5085991;28;20199;-59
2022/10/22 10:19:04;;;;;;;0.63;0.32;;;;;;;20.68;75.53;96836.69;5085277;28;20190;-58
2022/10/22 10:21:35;;;;;;;1.13;0.40;;;;;;;20.84;79.62;96831.78;5084593;28;20223;-59
2022/10/22 10:24:09;;;;;;;0.52;0.40;;;;;;;20.98;78.22;96837.19;5081113;28;20190;-59
2022/10/22 10:26:39;;;;;;;0.35;0.30;;;;;;;21.22;79.36;96834.78;5081477;28;20634;-58
2022/10/22 10:29:16;;;;;;;1.13;0.40;;;;;;;21.12;72.62;96831.66;5081483;28;20229;-59
2022/10/22 10:31:58;;;;;;;1.10;0.43;;;;;;;21.13;75.13;96835.19;5081098;28;20193;-59
2022/10/22 10:34:32;;;;;;;1.08;0.32;;;;;;;21.12;74.02;96836.22;5082209;28;20281;-58
2022/10/22 10:37:03;;;;;;;1.25;0.30;;;;;;;21.19;74.65;96828.97;5081722;28;20203;-58
2022/10/22 10:39:34;;;;;;;0.93;0.32;;;;;;;21.22;72.08;96840.16;5081314;28;20239;-58
2022/10/22 10:42:08;;;;;;;1.08;0.30;;;;;;;21.03;74.74;96834.72;5081215;28;20200;-58
2022/10/22 10:44:48;;;;;;;0.30;0.30;;;;;;;21.25;76.03;96836.25;5082826;28;20273;-59
2022/10/22 10:47:33;;;;;;;0.30;0.30;;;;;;;21.43;74.50;96835.66;5085537;28;20246;-59
2022/10/22 10:50:05;;;;;;;0.68;0.43;;;;;;;21.64;75.32;96835.44;5085246;28;20250;-59
2022/10/22 10:52:36;;;;;;;1.70;1.60;;;;;;;21.67;72.38;96840.41;5085604;28;20198;-59
2022/10/22 10:55:11;;;;;;;0.60;0.60;;;;;;;21.75;72.23;96840.22;5085239;28;20295;-59
2022/10/22 10:57:46;;;;;;;0.38;0.38;;;;;;;21.79;68.81;96842.25;5084829;28;20232;-59
2022/10/22 11:00:18;;;;;;;0.40;0.40;;;;;;;21.68;70.47;96842.88;5084734;28;20213;-60
2022/10/22 11:03:03;;;;;;;0.95;0.60;;;;;;;21.82;71.46;96843.72;5084551;28;20199;-59
2022/10/22 11:05:33;;;;;;;2.40;0.77;;;;;;;21.89;70.55;96841.03;5084445;28;20229;-59
2022/10/22 11:08:01;;;;;;;0.40;0.40;;;;;;;21.83;70.23;96842.66;5084399;28;20681;-59
2022/10/22 11:10:31;;;;;;;2.17;0.40;;;;;;;21.58;68.64;96847.84;5085122;28;20301;-63
2022/10/22 11:13:04;;;;;;;0.40;0.40;;;;;;;21.34;71.26;96835.84;5084501;28;20610;-59
2022/10/22 11:15:33;;;;;;;0.40;0.40;;;;;;;21.14;77.35;96836.84;5085249;28;20233;-59
2022/10/22 11:18:08;;;;;;;0.55;0.40;;;;;;;20.80;79.43;96825.16;5086399;28;20260;-59
2022/10/22 11:20:43;;;;;;;1.38;0.80;;;;;;;20.39;81.90;96821.69;5085788;28;20198;-59
2022/10/22 11:23:13;;;;;;;1.45;0.50;;;;;;;20.20;81.00;96822.38;5084711;28;20273;-58
2022/10/22 11:25:44;;;;;;;1.60;0.52;;;;;;;20.19;82.70;96815.38;5084311;28;20265;-60
2022/10/22 11:28:14;;;;;;;0.30;0.30;;;;;;;20.04;82.00;96820.03;5084342;28;20298;-59
2022/10/22 11:30:44;;;;;;;0.75;0.52;;;;;;;20.25;82.22;96803.81;5083532;28;20202;-58
2022/10/22 11:33:13;;;;;;;1.60;0.40;;;;;;;20.43;82.32;96814.06;5084264;28;20285;-59
2022/10/22 11:35:41;;;;;;;0.98;0.57;;;;;;;20.56;79.44;96812.25;5083885;28;20278;-58